createdAt,value
2017-10-08T00:00:27.690Z,999.6
2017-10-08T00:01:39.561Z,999.48
2017-10-08T00:02:51.734Z,999.46
2017-10-08T00:04:03.627Z,999.46
2017-10-08T00:05:15.483Z,999.46
2017-10-08T00:06:27.969Z,999.41
2017-10-08T00:07:40.127Z,999.45
2017-10-08T00:08:52.309Z,999.46
2017-10-08T00:10:04.490Z,999.43
2017-10-08T00:11:16.977Z,999.37
2017-10-08T00:12:29.458Z,999.41
2017-10-08T00:13:41.642Z,999.45
2017-10-08T00:14:53.813Z,999.44
2017-10-08T00:16:06.308Z,999.32
2017-10-08T00:17:17.862Z,999.39
2017-10-08T00:18:30.351Z,999.39
2017-10-08T00:19:42.822Z,999.3
2017-10-08T00:20:54.999Z,999.41
2017-10-08T00:22:07.173Z,999.46
2017-10-08T00:23:19.058Z,999.44
2017-10-08T00:24:31.528Z,999.42
2017-10-08T00:25:44.002Z,999.46
2017-10-08T00:26:56.180Z,999.49
2017-10-08T00:28:08.665Z,999.45
2017-10-08T00:29:21.136Z,999.44
2017-10-08T00:30:33.332Z,999.48
2017-10-08T00:31:45.513Z,999.5
2017-10-08T00:32:57.698Z,999.45
2017-10-08T00:34:09.556Z,999.51
2017-10-08T00:35:21.728Z,999.46
2017-10-08T00:36:34.212Z,999.42
2017-10-08T00:37:46.681Z,999.41
2017-10-08T00:38:58.901Z,999.45
2017-10-08T00:40:11.059Z,999.44
2017-10-08T00:41:22.625Z,999.42
2017-10-08T00:42:35.114Z,999.46
2017-10-08T00:43:47.595Z,999.38
2017-10-08T00:45:00.106Z,999.36
2017-10-08T00:46:12.600Z,999.4
2017-10-08T00:47:24.770Z,999.49
2017-10-08T00:48:36.942Z,999.44
2017-10-08T00:49:49.412Z,999.46
2017-10-08T00:51:01.571Z,999.45
2017-10-08T00:52:13.142Z,999.51
2017-10-08T00:53:25.624Z,999.52
2017-10-08T00:54:37.494Z,999.53
2017-10-08T00:55:49.665Z,999.54
2017-10-08T00:57:01.862Z,999.51
2017-10-08T00:58:14.331Z,999.5
2017-10-08T00:59:26.827Z,999.52
2017-10-08T01:00:39.322Z,999.51
2017-10-08T01:01:51.503Z,999.46
2017-10-08T01:03:03.716Z,999.46
2017-10-08T01:04:15.574Z,999.43
2017-10-08T01:05:28.055Z,999.5
2017-10-08T01:06:40.226Z,999.49
2017-10-08T01:07:52.409Z,999.48
2017-10-08T01:09:04.581Z,999.47
2017-10-08T01:10:17.063Z,999.51
2017-10-08T01:11:29.234Z,999.5
2017-10-08T01:12:41.706Z,999.48
2017-10-08T01:13:54.203Z,999.46
2017-10-08T01:15:06.371Z,999.49
2017-10-08T01:16:18.847Z,999.53
2017-10-08T01:17:31.322Z,999.54
2017-10-08T01:18:43.208Z,999.55
2017-10-08T01:19:55.678Z,999.5
2017-10-08T01:21:07.548Z,999.56
2017-10-08T01:22:19.721Z,999.54
2017-10-08T01:23:32.222Z,999.51
2017-10-08T01:24:44.397Z,999.53
2017-10-08T01:25:56.270Z,999.51
2017-10-08T01:27:08.453Z,999.52
2017-10-08T01:28:20.623Z,999.51
2017-10-08T01:29:32.794Z,999.49
2017-10-08T01:30:44.964Z,999.5
2017-10-08T01:31:57.135Z,999.51
2017-10-08T01:33:09.305Z,999.52
2017-10-08T01:34:21.476Z,999.53
2017-10-08T01:35:33.059Z,999.53
2017-10-08T01:36:45.242Z,999.5
2017-10-08T01:37:57.413Z,999.59
2017-10-08T01:39:09.592Z,999.56
2017-10-08T01:40:22.083Z,999.6
2017-10-08T01:41:34.576Z,999.61
2017-10-08T01:42:47.058Z,999.62
2017-10-08T01:43:59.248Z,999.56
2017-10-08T01:45:11.437Z,999.57
2017-10-08T01:46:23.618Z,999.57
2017-10-08T01:47:36.104Z,999.59
2017-10-08T01:48:48.277Z,999.52
2017-10-08T01:50:00.478Z,999.57
2017-10-08T01:51:12.341Z,999.6
2017-10-08T01:52:24.511Z,999.64
2017-10-08T01:53:36.682Z,999.6
2017-10-08T01:54:49.152Z,999.66
2017-10-08T01:56:01.322Z,999.67
2017-10-08T01:57:13.194Z,999.67
2017-10-08T01:58:25.368Z,999.61
2017-10-08T01:59:37.893Z,999.6
2017-10-08T02:00:50.367Z,999.62
2017-10-08T02:02:02.861Z,999.64
2017-10-08T02:03:15.047Z,999.65
2017-10-08T02:04:27.551Z,999.69
2017-10-08T02:05:39.425Z,999.63
2017-10-08T02:06:51.909Z,999.66
2017-10-08T02:08:04.413Z,999.63
2017-10-08T02:09:15.983Z,999.6
2017-10-08T02:10:28.178Z,999.64
2017-10-08T02:11:40.342Z,999.68
2017-10-08T02:12:52.512Z,999.68
2017-10-08T02:14:04.684Z,999.69
2017-10-08T02:15:16.856Z,999.69
2017-10-08T02:16:29.024Z,999.75
2017-10-08T02:17:41.495Z,999.72
2017-10-08T02:18:53.990Z,999.84
2017-10-08T02:20:06.461Z,999.78
2017-10-08T02:21:18.333Z,999.79
2017-10-08T02:22:29.915Z,999.8
2017-10-08T02:23:42.398Z,999.83
2017-10-08T02:24:54.879Z,999.86
2017-10-08T02:26:07.372Z,999.87
2017-10-08T02:27:19.548Z,999.86
2017-10-08T02:28:32.031Z,999.88
2017-10-08T02:29:44.212Z,999.86
2017-10-08T02:30:56.397Z,999.84
2017-10-08T02:32:08.867Z,999.88
2017-10-08T02:33:20.739Z,999.85
2017-10-08T02:34:33.242Z,999.91
2017-10-08T02:35:45.729Z,999.87
2017-10-08T02:36:58.201Z,999.88
2017-10-08T02:38:10.704Z,999.89
2017-10-08T02:39:22.592Z,999.88
2017-10-08T02:40:35.063Z,999.91
2017-10-08T02:41:47.545Z,999.91
2017-10-08T02:42:59.403Z,999.94
2017-10-08T02:44:11.575Z,999.89
2017-10-08T02:45:23.445Z,999.92
2017-10-08T02:46:35.916Z,999.96
2017-10-08T02:47:48.411Z,999.98
2017-10-08T02:49:00.606Z,999.97
2017-10-08T02:50:12.779Z,1000.03
2017-10-08T02:51:25.273Z,1000.05
2017-10-08T02:52:37.768Z,1000.02
2017-10-08T02:53:50.264Z,1000.03
2017-10-08T02:55:02.145Z,1000
2017-10-08T02:56:13.730Z,1000.06
2017-10-08T02:57:25.901Z,1000.04
2017-10-08T02:58:38.097Z,1000.08
2017-10-08T02:59:50.568Z,1000.08
2017-10-08T03:01:03.038Z,1000.06
2017-10-08T03:02:14.611Z,1000.04
2017-10-08T03:03:26.804Z,1000.02
2017-10-08T03:04:39.283Z,1000.08
2017-10-08T03:05:51.770Z,1000.05
2017-10-08T03:07:03.960Z,1000.1
2017-10-08T03:08:16.437Z,1000.08
2017-10-08T03:09:28.909Z,1000.07
2017-10-08T03:10:41.078Z,1000.1
2017-10-08T03:11:52.949Z,1000.08
2017-10-08T03:13:05.145Z,1000.11
2017-10-08T03:14:17.640Z,1000.04
2017-10-08T03:15:30.111Z,1000.15
2017-10-08T03:16:42.281Z,1000.07
2017-10-08T03:17:54.140Z,1000.1
2017-10-08T03:19:06.635Z,1000.09
2017-10-08T03:20:18.830Z,1000.21
2017-10-08T03:21:31.324Z,1000.19
2017-10-08T03:22:43.810Z,1000.23
2017-10-08T03:23:55.981Z,1000.16
2017-10-08T03:25:08.476Z,1000.21
2017-10-08T03:26:20.946Z,1000.28
2017-10-08T03:27:32.818Z,1000.24
2017-10-08T03:28:44.693Z,1000.27
2017-10-08T03:29:56.867Z,1000.33
2017-10-08T03:31:09.030Z,1000.33
2017-10-08T03:32:20.933Z,1000.35
2017-10-08T03:33:33.459Z,1000.34
2017-10-08T03:34:45.965Z,1000.35
2017-10-08T03:35:58.137Z,1000.31
2017-10-08T03:37:10.033Z,1000.37
2017-10-08T03:38:22.229Z,1000.29
2017-10-08T03:39:34.712Z,1000.37
2017-10-08T03:40:46.895Z,1000.36
2017-10-08T03:41:59.053Z,1000.33
2017-10-08T03:43:10.937Z,1000.37
2017-10-08T03:44:23.107Z,1000.39
2017-10-08T03:45:34.978Z,1000.41
2017-10-08T03:46:47.449Z,1000.44
2017-10-08T03:47:59.618Z,1000.43
2017-10-08T03:49:12.123Z,1000.4
2017-10-08T03:50:23.697Z,1000.4
2017-10-08T03:51:36.181Z,1000.39
2017-10-08T03:52:48.351Z,1000.43
2017-10-08T03:54:00.822Z,1000.45
2017-10-08T03:55:12.993Z,1000.44
2017-10-08T03:56:24.864Z,1000.44
2017-10-08T03:57:37.034Z,1000.45
2017-10-08T03:58:49.505Z,1000.41
2017-10-08T04:00:01.676Z,1000.44
2017-10-08T04:01:13.546Z,1000.48
2017-10-08T04:02:26.054Z,1000.49
2017-10-08T04:03:38.252Z,1000.5
2017-10-08T04:04:50.120Z,1000.53
2017-10-08T04:06:02.003Z,1000.51
2017-10-08T04:07:13.887Z,1000.49
2017-10-08T04:08:26.054Z,1000.5
2017-10-08T04:09:38.228Z,1000.44
2017-10-08T04:10:50.411Z,1000.56
2017-10-08T04:12:02.582Z,1000.52
2017-10-08T04:13:14.442Z,1000.54
2017-10-08T04:14:26.032Z,1000.59
2017-10-08T04:15:38.219Z,1000.6
2017-10-08T04:16:50.690Z,1000.61
2017-10-08T04:18:03.167Z,1000.54
2017-10-08T04:19:15.032Z,1000.64
2017-10-08T04:20:27.227Z,1000.59
2017-10-08T04:21:39.097Z,1000.6
2017-10-08T04:22:50.969Z,1000.59
2017-10-08T04:24:02.840Z,1000.59
2017-10-08T04:25:15.309Z,1000.67
2017-10-08T04:26:27.780Z,1000.61
2017-10-08T04:27:40.275Z,1000.6
2017-10-08T04:28:52.155Z,1000.61
2017-10-08T04:30:04.642Z,1000.64
2017-10-08T04:31:16.513Z,1000.61
2017-10-08T04:32:28.383Z,1000.65
2017-10-08T04:33:40.879Z,1000.65
2017-10-08T04:34:53.374Z,1000.58
2017-10-08T04:36:05.270Z,1000.66
2017-10-08T04:37:17.741Z,1000.69
2017-10-08T04:38:29.937Z,1000.64
2017-10-08T04:39:42.108Z,1000.64
2017-10-08T04:40:54.278Z,1000.69
2017-10-08T04:42:06.411Z,1000.72
2017-10-08T04:43:18.294Z,1000.75
2017-10-08T04:44:30.497Z,1000.69
2017-10-08T04:45:42.686Z,1000.72
2017-10-08T04:46:55.183Z,1000.7
2017-10-08T04:48:06.740Z,1000.63
2017-10-08T04:49:18.923Z,1000.73
2017-10-08T04:50:31.093Z,1000.74
2017-10-08T04:51:43.288Z,1000.77
2017-10-08T04:52:55.162Z,1000.73
2017-10-08T04:54:07.330Z,1000.73
2017-10-08T04:55:19.218Z,1000.8
2017-10-08T04:56:31.408Z,1000.81
2017-10-08T04:57:43.592Z,1000.83
2017-10-08T04:58:55.752Z,1000.8
2017-10-08T05:00:07.940Z,1000.79
2017-10-08T05:01:19.513Z,1000.81
2017-10-08T05:02:31.685Z,1000.83
2017-10-08T05:03:44.178Z,1000.84
2017-10-08T05:04:56.666Z,1000.84
2017-10-08T05:06:08.845Z,1000.89
2017-10-08T05:07:20.732Z,1000.82
2017-10-08T05:08:32.603Z,1000.86
2017-10-08T05:09:44.774Z,1000.9
2017-10-08T05:10:57.253Z,1000.91
2017-10-08T05:12:09.142Z,1000.93
2017-10-08T05:13:21.036Z,1000.97
2017-10-08T05:14:33.807Z,1000.97
2017-10-08T05:15:45.977Z,1000.99
2017-10-08T05:16:58.447Z,1001.08
2017-10-08T05:18:10.619Z,1001.23
2017-10-08T05:19:23.090Z,1001.21
2017-10-08T05:20:35.292Z,1001.19
2017-10-08T05:21:47.780Z,1001.21
2017-10-08T05:22:59.984Z,1001.28
2017-10-08T05:24:12.472Z,1001.28
2017-10-08T05:25:24.642Z,1001.28
2017-10-08T05:26:36.497Z,1001.35
2017-10-08T05:27:48.701Z,1001.39
2017-10-08T05:29:01.180Z,1001.42
2017-10-08T05:30:13.361Z,1001.41
2017-10-08T05:31:25.904Z,1001.41
2017-10-08T05:32:37.776Z,1001.37
2017-10-08T05:33:49.950Z,1001.45
2017-10-08T05:35:02.134Z,1001.49
2017-10-08T05:36:14.005Z,1001.48
2017-10-08T05:37:26.174Z,1001.47
2017-10-08T05:38:38.645Z,1001.54
2017-10-08T05:39:51.115Z,1001.56
2017-10-08T05:41:03.286Z,1001.58
2017-10-08T05:42:15.512Z,1001.55
2017-10-08T05:43:27.702Z,1001.65
2017-10-08T05:44:39.573Z,1001.7
2017-10-08T05:45:51.732Z,1001.74
2017-10-08T05:47:03.547Z,1001.79
2017-10-08T05:48:15.410Z,1001.72
2017-10-08T05:49:26.980Z,1001.66
2017-10-08T05:50:39.141Z,1001.7
2017-10-08T05:51:51.323Z,1001.65
2017-10-08T05:53:04.093Z,1001.67
2017-10-08T05:54:16.266Z,1001.71
2017-10-08T05:55:28.734Z,1001.69
2017-10-08T05:56:41.206Z,1001.71
2017-10-08T05:57:53.400Z,1001.74
2017-10-08T05:59:05.878Z,1001.75
2017-10-08T06:00:18.400Z,1001.77
2017-10-08T06:01:30.597Z,1001.82
2017-10-08T06:02:42.770Z,1001.85
2017-10-08T06:03:55.254Z,1001.9
2017-10-08T06:05:07.724Z,1001.96
2017-10-08T06:06:19.919Z,1002.01
2017-10-08T06:07:32.401Z,1001.97
2017-10-08T06:08:44.911Z,1001.97
2017-10-08T06:09:57.392Z,1002
2017-10-08T06:11:09.253Z,1002.04
2017-10-08T06:12:21.431Z,1002
2017-10-08T06:13:33.619Z,1002.01
2017-10-08T06:14:46.114Z,1002.08
2017-10-08T06:15:58.285Z,1002.09
2017-10-08T06:17:10.155Z,1002.1
2017-10-08T06:18:22.351Z,1002.13
2017-10-08T06:19:35.147Z,1002.17
2017-10-08T06:20:47.617Z,1002.23
2017-10-08T06:22:00.088Z,1002.24
2017-10-08T06:23:12.306Z,1002.27
2017-10-08T06:24:24.479Z,1002.35
2017-10-08T06:25:36.650Z,1002.39
2017-10-08T06:26:49.121Z,1002.37
2017-10-08T06:28:01.591Z,1002.41
2017-10-08T06:29:13.762Z,1002.4
2017-10-08T06:30:25.357Z,1002.46
2017-10-08T06:31:37.528Z,1002.45
2017-10-08T06:32:50.024Z,1002.46
2017-10-08T06:34:02.220Z,1002.53
2017-10-08T06:35:14.414Z,1002.53
2017-10-08T06:36:26.887Z,1002.51
2017-10-08T06:37:39.370Z,1002.54
2017-10-08T06:38:50.928Z,1002.54
2017-10-08T06:40:03.401Z,1002.56
2017-10-08T06:41:14.957Z,1002.58
2017-10-08T06:42:27.126Z,1002.63
2017-10-08T06:43:39.310Z,1002.6
2017-10-08T06:44:51.488Z,1002.64
2017-10-08T06:46:03.359Z,1002.65
2017-10-08T06:47:15.210Z,1002.69
2017-10-08T06:48:26.157Z,1002.72
2017-10-08T06:49:38.046Z,1002.7
2017-10-08T06:50:50.545Z,1002.69
2017-10-08T06:52:03.030Z,1002.74
2017-10-08T06:53:15.200Z,1002.8
2017-10-08T06:54:27.358Z,1002.83
2017-10-08T06:55:39.241Z,1002.88
2017-10-08T06:56:51.713Z,1002.94
2017-10-08T06:58:03.282Z,1002.98
2017-10-08T06:59:15.779Z,1002.97
2017-10-08T07:00:27.649Z,1003
2017-10-08T07:01:39.834Z,1003.03
2017-10-08T07:02:52.615Z,1003.07
2017-10-08T07:04:04.786Z,1003.08
2017-10-08T07:05:16.958Z,1003.13
2017-10-08T07:06:29.127Z,1003.07
2017-10-08T07:07:41.331Z,1003.12
2017-10-08T07:08:53.506Z,1003.11
2017-10-08T07:10:05.989Z,1003.06
2017-10-08T07:11:17.567Z,1003.11
2017-10-08T07:12:29.118Z,1003.13
2017-10-08T07:13:41.304Z,1003.14
2017-10-08T07:14:53.785Z,1003.14
2017-10-08T07:16:06.267Z,1003.16
2017-10-08T07:17:18.738Z,1003.16
2017-10-08T07:18:30.920Z,1003.13
2017-10-08T07:19:43.405Z,1003.21
2017-10-08T07:20:55.276Z,1003.23
2017-10-08T07:22:07.446Z,1003.28
2017-10-08T07:23:19.323Z,1003.28
2017-10-08T07:24:31.812Z,1003.37
2017-10-08T07:25:44.316Z,1003.44
2017-10-08T07:26:56.803Z,1003.45
2017-10-08T07:28:08.974Z,1003.45
2017-10-08T07:29:21.152Z,1003.5
2017-10-08T07:30:33.629Z,1003.57
2017-10-08T07:31:45.811Z,1003.52
2017-10-08T07:32:57.982Z,1003.55
2017-10-08T07:34:09.853Z,1003.59
2017-10-08T07:35:22.361Z,1003.62
2017-10-08T07:36:34.543Z,1003.63
2017-10-08T07:37:46.439Z,1003.63
2017-10-08T07:38:58.910Z,1003.65
2017-10-08T07:40:11.106Z,1003.68
2017-10-08T07:41:23.588Z,1003.71
2017-10-08T07:42:35.775Z,1003.77
2017-10-08T07:43:48.268Z,1003.78
2017-10-08T07:45:00.738Z,1003.83
2017-10-08T07:46:12.933Z,1003.81
2017-10-08T07:47:24.793Z,1003.89
2017-10-08T07:48:36.975Z,1003.89
2017-10-08T07:49:49.146Z,1003.92
2017-10-08T07:51:01.644Z,1004
2017-10-08T07:52:14.166Z,1003.96
2017-10-08T07:53:26.033Z,1004.03
2017-10-08T07:54:38.203Z,1004.05
2017-10-08T07:55:50.674Z,1004.05
2017-10-08T07:57:03.145Z,1004.03
2017-10-08T07:58:15.649Z,1004.07
2017-10-08T07:59:27.835Z,1004.07
2017-10-08T08:00:40.017Z,1004.08
2017-10-08T08:01:52.528Z,1004.12
2017-10-08T08:03:04.997Z,1004.09
2017-10-08T08:04:17.181Z,1004.12
2017-10-08T08:05:29.689Z,1004.2
2017-10-08T08:06:42.160Z,1004.25
2017-10-08T08:07:54.664Z,1004.28
2017-10-08T08:09:06.859Z,1004.32
2017-10-08T08:10:19.029Z,1004.34
2017-10-08T08:11:31.217Z,1004.3
2017-10-08T08:12:43.395Z,1004.24
2017-10-08T08:13:55.873Z,1004.24
2017-10-08T08:15:08.359Z,1004.17
2017-10-08T08:16:20.251Z,1004.16
2017-10-08T08:17:32.759Z,1004.2
2017-10-08T08:18:44.667Z,1004.17
2017-10-08T08:19:56.837Z,1004.24
2017-10-08T08:21:08.407Z,1004.28
2017-10-08T08:22:20.591Z,1004.22
2017-10-08T08:23:33.074Z,1004.26
2017-10-08T08:24:45.553Z,1004.29
2017-10-08T08:25:57.423Z,1004.29
2017-10-08T08:27:09.618Z,1004.35
2017-10-08T08:28:21.507Z,1004.39
2017-10-08T08:29:34.260Z,1004.42
2017-10-08T08:30:46.448Z,1004.41
2017-10-08T08:31:58.307Z,1004.46
2017-10-08T08:33:10.796Z,1004.41
2017-10-08T08:34:23.017Z,1004.47
2017-10-08T08:35:34.906Z,1004.49
2017-10-08T08:36:47.402Z,1004.52
2017-10-08T08:37:59.596Z,1004.51
2017-10-08T08:39:12.076Z,1004.52
2017-10-08T08:40:24.513Z,1004.49
2017-10-08T08:41:36.995Z,1004.46
2017-10-08T08:42:48.580Z,1004.4
2017-10-08T08:44:00.757Z,1004.4
2017-10-08T08:45:13.246Z,1004.4
2017-10-08T08:46:25.119Z,1004.45
2017-10-08T08:47:37.312Z,1004.46
2017-10-08T08:48:49.804Z,1004.48
2017-10-08T08:50:02.311Z,1004.5
2017-10-08T08:51:14.174Z,1004.54
2017-10-08T08:52:26.045Z,1004.54
2017-10-08T08:53:38.205Z,1004.55
2017-10-08T08:54:50.694Z,1004.53
2017-10-08T08:56:02.007Z,1004.54
2017-10-08T08:57:14.178Z,1004.59
2017-10-08T08:58:26.356Z,1004.59
2017-10-08T08:59:38.551Z,1004.62
2017-10-08T09:00:50.716Z,1004.69
2017-10-08T09:02:02.586Z,1004.7
2017-10-08T09:03:15.063Z,1004.69
2017-10-08T09:04:27.263Z,1004.72
2017-10-08T09:05:39.147Z,1004.76
2017-10-08T09:06:51.330Z,1004.77
2017-10-08T09:08:03.813Z,1004.71
2017-10-08T09:09:16.284Z,1004.78
2017-10-08T09:10:28.755Z,1004.7
2017-10-08T09:11:40.324Z,1004.84
2017-10-08T09:12:52.529Z,1004.91
2017-10-08T09:14:04.723Z,1004.95
2017-10-08T09:15:16.900Z,1005.01
2017-10-08T09:16:29.382Z,1004.96
2017-10-08T09:17:41.279Z,1004.99
2017-10-08T09:18:53.456Z,1004.89
2017-10-08T09:20:05.953Z,1004.91
2017-10-08T09:21:18.128Z,1004.93
2017-10-08T09:22:30.311Z,1005
2017-10-08T09:23:43.031Z,1004.96
2017-10-08T09:24:55.228Z,1005
2017-10-08T09:26:07.123Z,1004.98
2017-10-08T09:27:19.294Z,1005
2017-10-08T09:28:31.168Z,1005.06
2017-10-08T09:29:43.347Z,1005.07
2017-10-08T09:30:55.831Z,1005.04
2017-10-08T09:32:08.026Z,1005.01
2017-10-08T09:33:19.906Z,1005.11
2017-10-08T09:34:31.792Z,1005.13
2017-10-08T09:35:44.263Z,1005.12
2017-10-08T09:36:56.759Z,1005.15
2017-10-08T09:38:09.230Z,1005.16
2017-10-08T09:39:21.400Z,1005.18
2017-10-08T09:40:33.277Z,1005.18
2017-10-08T09:41:45.754Z,1005.18
2017-10-08T09:42:57.937Z,1005.24
2017-10-08T09:44:10.107Z,1005.25
2017-10-08T09:45:22.312Z,1005.3
2017-10-08T09:46:34.206Z,1005.26
2017-10-08T09:47:46.385Z,1005.31
2017-10-08T09:48:58.867Z,1005.3
2017-10-08T09:50:11.063Z,1005.37
2017-10-08T09:51:23.240Z,1005.55
2017-10-08T09:52:35.736Z,1005.44
2017-10-08T09:53:48.231Z,1005.48
2017-10-08T09:55:00.406Z,1005.52
2017-10-08T09:56:12.890Z,1005.57
2017-10-08T09:57:25.085Z,1005.4
2017-10-08T09:58:36.960Z,1005.4
2017-10-08T09:59:49.459Z,1005.41
2017-10-08T10:01:01.959Z,1005.41
2017-10-08T10:02:13.526Z,1005.49
2017-10-08T10:03:25.696Z,1005.56
2017-10-08T10:04:37.559Z,1005.48
2017-10-08T10:05:49.762Z,1005.47
2017-10-08T10:07:01.934Z,1005.49
2017-10-08T10:08:14.421Z,1005.49
2017-10-08T10:09:26.604Z,1005.47
2017-10-08T10:10:38.787Z,1005.45
2017-10-08T10:11:51.259Z,1005.51
2017-10-08T10:13:03.429Z,1005.51
2017-10-08T10:14:15.299Z,1005.59
2017-10-08T10:15:27.178Z,1005.61
2017-10-08T10:16:39.366Z,1005.61
2017-10-08T10:17:51.564Z,1005.6
2017-10-08T10:19:03.746Z,1005.66
2017-10-08T10:20:16.228Z,1005.6
2017-10-08T10:21:28.424Z,1005.7
2017-10-08T10:22:40.593Z,1005.75
2017-10-08T10:23:52.473Z,1005.9
2017-10-08T10:25:04.344Z,1005.87
2017-10-08T10:26:16.839Z,1005.83
2017-10-08T10:27:29.352Z,1005.81
2017-10-08T10:28:41.522Z,1005.75
2017-10-08T10:29:54.026Z,1005.78
2017-10-08T10:31:06.214Z,1005.74
2017-10-08T10:32:18.710Z,1005.79
2017-10-08T10:33:30.916Z,1005.73
2017-10-08T10:34:43.101Z,1005.68
2017-10-08T10:35:55.572Z,1005.75
2017-10-08T10:37:06.843Z,1005.75
2017-10-08T10:38:19.013Z,1005.72
2017-10-08T10:39:31.766Z,1005.8
2017-10-08T10:40:43.629Z,1005.76
2017-10-08T10:41:56.100Z,1005.8
2017-10-08T10:43:08.325Z,1005.8
2017-10-08T10:44:20.494Z,1005.79
2017-10-08T10:45:32.661Z,1005.8
2017-10-08T10:46:44.834Z,1005.89
2017-10-08T10:47:57.011Z,1005.86
2017-10-08T10:49:09.199Z,1005.83
2017-10-08T10:50:21.694Z,1005.94
2017-10-08T10:51:33.566Z,1005.93
2017-10-08T10:52:46.050Z,1005.96
2017-10-08T10:53:58.558Z,1006.04
2017-10-08T10:55:10.752Z,1006.12
2017-10-08T10:56:22.634Z,1006.16
2017-10-08T10:57:34.506Z,1006.21
2017-10-08T10:58:46.389Z,1006.22
2017-10-08T10:59:58.559Z,1006.24
2017-10-08T11:01:10.716Z,1006.16
2017-10-08T11:02:22.601Z,1006.2
2017-10-08T11:03:34.471Z,1006.13
2017-10-08T11:04:46.042Z,1006.01
2017-10-08T11:05:58.520Z,1006.01
2017-10-08T11:07:11.010Z,1006
2017-10-08T11:08:23.186Z,1005.96
2017-10-08T11:09:34.750Z,1005.96
2017-10-08T11:10:46.933Z,1006.07
2017-10-08T11:11:59.423Z,1006.05
2017-10-08T11:13:11.300Z,1006.16
2017-10-08T11:14:23.490Z,1006.24
2017-10-08T11:15:35.985Z,1006.15
2017-10-08T11:16:48.474Z,1006.17
2017-10-08T11:18:00.970Z,1006.11
2017-10-08T11:19:12.253Z,1006.01
2017-10-08T11:20:24.436Z,1006
2017-10-08T11:21:36.615Z,1006.12
2017-10-08T11:22:48.809Z,1006.1
2017-10-08T11:24:00.999Z,1006.08
2017-10-08T11:25:13.176Z,1006.07
2017-10-08T11:26:25.665Z,1006.05
2017-10-08T11:27:38.135Z,1006.11
2017-10-08T11:28:50.642Z,1006.03
2017-10-08T11:30:02.552Z,1006.07
2017-10-08T11:31:15.029Z,1006.14
2017-10-08T11:32:27.224Z,1006.22
2017-10-08T11:33:39.713Z,1006.05
2017-10-08T11:34:51.584Z,1006.15
2017-10-08T11:36:03.139Z,1006.1
2017-10-08T11:37:15.025Z,1006.19
2017-10-08T11:38:26.945Z,1006.17
2017-10-08T11:39:39.424Z,1006.11
2017-10-08T11:40:51.613Z,1006.21
2017-10-08T11:42:03.808Z,1006.1
2017-10-08T11:43:16.011Z,1006.13
2017-10-08T11:44:27.575Z,1006.17
2017-10-08T11:45:39.745Z,1006.17
2017-10-08T11:46:51.947Z,1006.14
2017-10-08T11:48:04.137Z,1006.12
2017-10-08T11:49:16.639Z,1006.17
2017-10-08T11:50:28.834Z,1006.19
2017-10-08T11:51:41.006Z,1006.21
2017-10-08T11:52:53.204Z,1006.23
2017-10-08T11:54:05.697Z,1006.23
2017-10-08T11:55:17.563Z,1006.29
2017-10-08T11:56:29.131Z,1006.24
2017-10-08T11:57:41.309Z,1006.23
2017-10-08T11:58:53.498Z,1006.29
2017-10-08T12:00:05.669Z,1006.28
2017-10-08T12:01:17.840Z,1006.22
2017-10-08T12:02:29.709Z,1006.28
2017-10-08T12:03:42.187Z,1006.27
2017-10-08T12:04:54.683Z,1006.26
2017-10-08T12:06:07.179Z,1006.33
2017-10-08T12:07:19.068Z,1006.34
2017-10-08T12:08:31.237Z,1006.38
2017-10-08T12:09:43.741Z,1006.41
2017-10-08T12:10:55.936Z,1006.48
2017-10-08T12:12:07.812Z,1006.48
2017-10-08T12:13:19.995Z,1006.49
2017-10-08T12:14:32.165Z,1006.53
2017-10-08T12:15:44.036Z,1006.53
2017-10-08T12:16:56.232Z,1006.45
2017-10-08T12:18:07.828Z,1006.43
2017-10-08T12:19:19.723Z,1006.48
2017-10-08T12:20:31.618Z,1006.5
2017-10-08T12:21:43.802Z,1006.55
2017-10-08T12:22:55.688Z,1006.45
2017-10-08T12:24:08.189Z,1006.52
2017-10-08T12:25:20.376Z,1006.49
2017-10-08T12:26:32.573Z,1006.54
2017-10-08T12:27:45.076Z,1006.53
2017-10-08T12:28:56.664Z,1006.52
2017-10-08T12:30:09.166Z,1006.54
2017-10-08T12:31:21.038Z,1006.56
2017-10-08T12:32:32.600Z,1006.54
2017-10-08T12:33:44.503Z,1006.54
2017-10-08T12:34:56.066Z,1006.55
2017-10-08T12:36:08.246Z,1006.53
2017-10-08T12:37:20.441Z,1006.5
2017-10-08T12:38:32.930Z,1006.59
2017-10-08T12:39:45.107Z,1006.57
2017-10-08T12:40:57.595Z,1006.5
2017-10-08T12:42:09.467Z,1006.54
2017-10-08T12:43:21.344Z,1006.56
2017-10-08T12:44:33.532Z,1006.55
2017-10-08T12:45:45.429Z,1006.53
2017-10-08T12:46:57.598Z,1006.62
2017-10-08T12:48:09.469Z,1006.72
2017-10-08T12:49:21.648Z,1006.76
2017-10-08T12:50:33.217Z,1006.81
2017-10-08T12:51:45.389Z,1006.77
2017-10-08T12:52:57.885Z,1006.73
2017-10-08T12:54:09.749Z,1006.69
2017-10-08T12:55:21.919Z,1006.74
2017-10-08T12:56:34.389Z,1006.76
2017-10-08T12:57:46.559Z,1006.75
2017-10-08T12:58:57.530Z,1006.78
2017-10-08T13:00:09.725Z,1006.8
2017-10-08T13:01:21.304Z,1006.78
2017-10-08T13:02:33.492Z,1006.8
2017-10-08T13:03:45.687Z,1006.85
2017-10-08T13:04:57.566Z,1006.81
2017-10-08T13:06:09.129Z,1006.83
2017-10-08T13:07:21.332Z,1006.78
2017-10-08T13:08:33.828Z,1006.75
2017-10-08T13:09:46.041Z,1006.79
2017-10-08T13:10:57.898Z,1006.8
2017-10-08T13:12:10.086Z,1006.78
2017-10-08T13:13:22.303Z,1006.8
2017-10-08T13:14:33.874Z,1006.79
2017-10-08T13:15:46.044Z,1006.81
2017-10-08T13:16:58.215Z,1006.82
2017-10-08T13:18:10.693Z,1006.83
2017-10-08T13:19:22.866Z,1006.83
2017-10-08T13:20:35.360Z,1006.83
2017-10-08T13:21:48.098Z,1006.74
2017-10-08T13:23:00.281Z,1006.8
2017-10-08T13:24:12.464Z,1006.79
2017-10-08T13:25:24.960Z,1006.89
2017-10-08T13:26:37.431Z,1006.93
2017-10-08T13:27:49.925Z,1006.94
2017-10-08T13:29:01.822Z,1006.82
2017-10-08T13:30:13.392Z,1006.83
2017-10-08T13:31:25.289Z,1006.79
2017-10-08T13:32:37.492Z,1006.84
2017-10-08T13:33:49.680Z,1006.83
2017-10-08T13:35:01.559Z,1006.85
2017-10-08T13:36:14.053Z,1006.82
2017-10-08T13:37:26.218Z,1006.84
2017-10-08T13:38:38.395Z,1006.89
2017-10-08T13:39:50.582Z,1006.86
2017-10-08T13:41:02.460Z,1006.85
2017-10-08T13:42:14.351Z,1006.87
2017-10-08T13:43:26.529Z,1006.89
2017-10-08T13:44:38.414Z,1006.96
2017-10-08T13:45:50.910Z,1006.92
2017-10-08T13:47:03.107Z,1006.97
2017-10-08T13:48:14.981Z,1006.95
2017-10-08T13:49:27.459Z,1006.96
2017-10-08T13:50:39.328Z,1006.99
2017-10-08T13:51:51.814Z,1007
2017-10-08T13:53:03.697Z,1007
2017-10-08T13:54:15.580Z,1007
2017-10-08T13:55:27.809Z,1007.05
2017-10-08T13:56:40.297Z,1007.06
2017-10-08T13:57:52.499Z,1007.08
2017-10-08T13:59:04.688Z,1007.03
2017-10-08T14:00:16.893Z,1007.04
2017-10-08T14:01:29.080Z,1007.06
2017-10-08T14:02:41.554Z,1007
2017-10-08T14:03:53.446Z,1006.99
2017-10-08T14:05:05.625Z,1007
2017-10-08T14:06:18.120Z,1006.99
2017-10-08T14:07:30.294Z,1006.99
2017-10-08T14:08:42.478Z,1006.99
2017-10-08T14:09:54.649Z,1007.01
2017-10-08T14:11:06.820Z,1007.03
2017-10-08T14:12:18.991Z,1007.04
2017-10-08T14:13:31.474Z,1007.06
2017-10-08T14:14:43.957Z,1007.08
2017-10-08T14:15:56.152Z,1007.04
2017-10-08T14:17:07.731Z,1007.07
2017-10-08T14:18:20.226Z,1007.04
2017-10-08T14:19:32.389Z,1007.06
2017-10-08T14:20:44.567Z,1007.03
2017-10-08T14:21:56.805Z,1007.08
2017-10-08T14:23:09.276Z,1007.15
2017-10-08T14:24:21.453Z,1007.12
2017-10-08T14:25:33.617Z,1007.13
2017-10-08T14:26:46.113Z,1007.19
2017-10-08T14:27:57.983Z,1007.19
2017-10-08T14:29:09.555Z,1007.23
2017-10-08T14:30:21.750Z,1007.18
2017-10-08T14:31:33.645Z,1007.18
2017-10-08T14:32:45.519Z,1007.22
2017-10-08T14:33:57.998Z,1007.2
2017-10-08T14:35:09.581Z,1007.19
2017-10-08T14:36:21.154Z,1007.28
2017-10-08T14:37:33.336Z,1007.23
2017-10-08T14:38:45.522Z,1007.22
2017-10-08T14:39:57.398Z,1007.23
2017-10-08T14:41:09.286Z,1007.2
2017-10-08T14:42:21.757Z,1007.22